sensor_id;sensor_type;location;lat;lon;timestamp;P1;durP1;ratioP1;P2;durP2;ratioP2
51660;SDS011;37741;49.748;8.490;2023-04-20T00:02:22;4.70;;;2.22;;
51660;SDS011;37741;49.748;8.490;2023-04-20T00:04:49;3.47;;;2.00;;
51660;SDS011;37741;49.748;8.490;2023-04-20T00:07:14;5.90;;;2.90;;
51660;SDS011;37741;49.748;8.490;2023-04-20T00:09:40;3.95;;;2.20;;
51660;SDS011;37741;49.748;8.490;2023-04-20T00:12:06;4.55;;;2.30;;
51660;SDS011;37741;49.748;8.490;2023-04-20T00:14:32;4.03;;;2.22;;
51660;SDS011;37741;49.748;8.490;2023-04-20T00:16:57;5.03;;;2.30;;
51660;SDS011;37741;49.748;8.490;2023-04-20T00:19:23;5.15;;;2.50;;
51660;SDS011;37741;49.748;8.490;2023-04-20T00:21:50;5.75;;;2.45;;
51660;SDS011;37741;49.748;8.490;2023-04-20T00:24:16;6.55;;;2.55;;
51660;SDS011;37741;49.748;8.490;2023-04-20T00:26:42;4.38;;;2.72;;
51660;SDS011;37741;49.748;8.490;2023-04-20T00:29:08;4.63;;;2.45;;
51660;SDS011;37741;49.748;8.490;2023-04-20T00:31:33;4.72;;;2.53;;
51660;SDS011;37741;49.748;8.490;2023-04-20T00:33:59;5.40;;;2.55;;
51660;SDS011;37741;49.748;8.490;2023-04-20T00:36:24;6.97;;;3.10;;
51660;SDS011;37741;49.748;8.490;2023-04-20T00:38:51;5.43;;;2.75;;
51660;SDS011;37741;49.748;8.490;2023-04-20T00:41:16;4.68;;;2.60;;
51660;SDS011;37741;49.748;8.490;2023-04-20T00:43:51;5.38;;;2.88;;
51660;SDS011;37741;49.748;8.490;2023-04-20T00:46:18;5.63;;;2.65;;
51660;SDS011;37741;49.748;8.490;2023-04-20T00:48:44;5.00;;;2.45;;
51660;SDS011;37741;49.748;8.490;2023-04-20T00:51:10;3.78;;;2.72;;
51660;SDS011;37741;49.748;8.490;2023-04-20T00:53:36;4.80;;;2.45;;
51660;SDS011;37741;49.748;8.490;2023-04-20T00:56:02;3.50;;;2.35;;
51660;SDS011;37741;49.748;8.490;2023-04-20T00:58:29;5.10;;;3.20;;
51660;SDS011;37741;49.748;8.490;2023-04-20T01:00:54;4.60;;;3.22;;
51660;SDS011;37741;49.748;8.490;2023-04-20T01:03:20;5.43;;;3.17;;
51660;SDS011;37741;49.748;8.490;2023-04-20T01:05:46;4.90;;;2.72;;
51660;SDS011;37741;49.748;8.490;2023-04-20T01:08:12;4.03;;;2.78;;
51660;SDS011;37741;49.748;8.490;2023-04-20T01:10:38;5.03;;;3.10;;
51660;SDS011;37741;49.748;8.490;2023-04-20T01:13:03;7.45;;;2.80;;
51660;SDS011;37741;49.748;8.490;2023-04-20T01:15:29;5.88;;;2.70;;
51660;SDS011;37741;49.748;8.490;2023-04-20T01:17:54;4.30;;;2.90;;
51660;SDS011;37741;49.748;8.490;2023-04-20T01:20:21;4.03;;;2.25;;
51660;SDS011;37741;49.748;8.490;2023-04-20T01:22:50;7.07;;;2.40;;
51660;SDS011;37741;49.748;8.490;2023-04-20T01:25:18;2.97;;;2.22;;
51660;SDS011;37741;49.748;8.490;2023-04-20T01:27:45;3.53;;;2.38;;
51660;SDS011;37741;49.748;8.490;2023-04-20T01:30:10;5.78;;;2.70;;
51660;SDS011;37741;49.748;8.490;2023-04-20T01:32:37;5.60;;;3.05;;
51660;SDS011;37741;49.748;8.490;2023-04-20T01:35:04;4.38;;;2.78;;
51660;SDS011;37741;49.748;8.490;2023-04-20T01:37:30;5.35;;;2.75;;
51660;SDS011;37741;49.748;8.490;2023-04-20T01:39:56;5.32;;;2.92;;
51660;SDS011;37741;49.748;8.490;2023-04-20T01:42:22;5.32;;;2.65;;
51660;SDS011;37741;49.748;8.490;2023-04-20T01:44:48;4.78;;;2.70;;
51660;SDS011;37741;49.748;8.490;2023-04-20T01:47:13;4.47;;;2.33;;
51660;SDS011;37741;49.748;8.490;2023-04-20T01:49:39;4.05;;;2.65;;
51660;SDS011;37741;49.748;8.490;2023-04-20T01:52:05;3.97;;;2.60;;
51660;SDS011;37741;49.748;8.490;2023-04-20T01:54:31;4.22;;;2.55;;
51660;SDS011;37741;49.748;8.490;2023-04-20T01:56:56;5.25;;;2.80;;
51660;SDS011;37741;49.748;8.490;2023-04-20T01:59:22;3.25;;;2.28;;
51660;SDS011;37741;49.748;8.490;2023-04-20T02:01:47;4.80;;;2.00;;
51660;SDS011;37741;49.748;8.490;2023-04-20T02:04:13;4.82;;;2.95;;
51660;SDS011;37741;49.748;8.490;2023-04-20T02:06:39;4.38;;;2.58;;
51660;SDS011;37741;49.748;8.490;2023-04-20T02:09:05;4.35;;;2.22;;
51660;SDS011;37741;49.748;8.490;2023-04-20T02:11:30;5.68;;;3.05;;
51660;SDS011;37741;49.748;8.490;2023-04-20T02:13:56;4.05;;;2.60;;
51660;SDS011;37741;49.748;8.490;2023-04-20T02:16:22;4.47;;;2.78;;
51660;SDS011;37741;49.748;8.490;2023-04-20T02:18:47;4.47;;;2.85;;
51660;SDS011;37741;49.748;8.490;2023-04-20T02:21:13;5.57;;;2.67;;
51660;SDS011;37741;49.748;8.490;2023-04-20T02:23:39;4.90;;;2.70;;
51660;SDS011;37741;49.748;8.490;2023-04-20T02:26:05;4.75;;;2.53;;
51660;SDS011;37741;49.748;8.490;2023-04-20T02:28:30;4.43;;;2.72;;
51660;SDS011;37741;49.748;8.490;2023-04-20T02:31:05;5.43;;;2.92;;
51660;SDS011;37741;49.748;8.490;2023-04-20T02:33:30;4.80;;;2.80;;
51660;SDS011;37741;49.748;8.490;2023-04-20T02:35:56;5.07;;;2.60;;
51660;SDS011;37741;49.748;8.490;2023-04-20T02:38:22;5.93;;;2.58;;
51660;SDS011;37741;49.748;8.490;2023-04-20T02:40:47;3.85;;;2.20;;
51660;SDS011;37741;49.748;8.490;2023-04-20T02:43:13;4.40;;;2.60;;
51660;SDS011;37741;49.748;8.490;2023-04-20T02:45:38;5.25;;;3.10;;
51660;SDS011;37741;49.748;8.490;2023-04-20T02:48:04;9.32;;;2.85;;
51660;SDS011;37741;49.748;8.490;2023-04-20T02:50:30;4.55;;;2.58;;
51660;SDS011;37741;49.748;8.490;2023-04-20T02:52:56;5.47;;;2.90;;
51660;SDS011;37741;49.748;8.490;2023-04-20T02:55:21;6.22;;;3.00;;
51660;SDS011;37741;49.748;8.490;2023-04-20T02:57:47;5.55;;;3.00;;
51660;SDS011;37741;49.748;8.490;2023-04-20T03:00:12;3.70;;;2.60;;
51660;SDS011;37741;49.748;8.490;2023-04-20T03:02:38;3.72;;;2.92;;
51660;SDS011;37741;49.748;8.490;2023-04-20T03:05:04;5.80;;;3.08;;
51660;SDS011;37741;49.748;8.490;2023-04-20T03:07:30;4.22;;;2.70;;
51660;SDS011;37741;49.748;8.490;2023-04-20T03:09:56;3.80;;;2.58;;
51660;SDS011;37741;49.748;8.490;2023-04-20T03:12:21;4.97;;;2.92;;
51660;SDS011;37741;49.748;8.490;2023-04-20T03:14:47;3.83;;;2.60;;
51660;SDS011;37741;49.748;8.490;2023-04-20T03:17:13;4.57;;;2.50;;
51660;SDS011;37741;49.748;8.490;2023-04-20T03:19:39;5.95;;;2.78;;
51660;SDS011;37741;49.748;8.490;2023-04-20T03:22:05;6.18;;;2.80;;
51660;SDS011;37741;49.748;8.490;2023-04-20T03:24:31;6.75;;;3.28;;
51660;SDS011;37741;49.748;8.490;2023-04-20T03:26:56;6.47;;;2.85;;
51660;SDS011;37741;49.748;8.490;2023-04-20T03:29:22;5.25;;;2.78;;
51660;SDS011;37741;49.748;8.490;2023-04-20T03:31:47;4.20;;;2.78;;
51660;SDS011;37741;49.748;8.490;2023-04-20T03:34:13;5.60;;;2.60;;
51660;SDS011;37741;49.748;8.490;2023-04-20T03:36:39;6.13;;;2.80;;
51660;SDS011;37741;49.748;8.490;2023-04-20T03:39:04;6.90;;;3.10;;
51660;SDS011;37741;49.748;8.490;2023-04-20T03:41:30;8.13;;;3.05;;
51660;SDS011;37741;49.748;8.490;2023-04-20T03:43:56;5.45;;;3.10;;
51660;SDS011;37741;49.748;8.490;2023-04-20T03:46:21;4.95;;;3.28;;
51660;SDS011;37741;49.748;8.490;2023-04-20T03:48:47;6.47;;;3.10;;
51660;SDS011;37741;49.748;8.490;2023-04-20T03:51:13;5.32;;;2.92;;
51660;SDS011;37741;49.748;8.490;2023-04-20T03:53:38;6.38;;;3.88;;
51660;SDS011;37741;49.748;8.490;2023-04-20T03:56:04;6.38;;;3.13;;
51660;SDS011;37741;49.748;8.490;2023-04-20T03:58:30;5.22;;;2.97;;
51660;SDS011;37741;49.748;8.490;2023-04-20T04:01:03;4.38;;;2.92;;
51660;SDS011;37741;49.748;8.490;2023-04-20T04:03:32;8.88;;;2.92;;
51660;SDS011;37741;49.748;8.490;2023-04-20T04:05:58;5.30;;;2.97;;
51660;SDS011;37741;49.748;8.490;2023-04-20T04:08:23;7.45;;;2.90;;
51660;SDS011;37741;49.748;8.490;2023-04-20T04:10:49;5.90;;;2.90;;
51660;SDS011;37741;49.748;8.490;2023-04-20T04:13:15;5.65;;;3.08;;
51660;SDS011;37741;49.748;8.490;2023-04-20T04:15:41;4.55;;;3.20;;
51660;SDS011;37741;49.748;8.490;2023-04-20T04:18:06;4.22;;;2.70;;
51660;SDS011;37741;49.748;8.490;2023-04-20T04:20:32;5.47;;;2.60;;
51660;SDS011;37741;49.748;8.490;2023-04-20T04:22:58;5.50;;;3.17;;
51660;SDS011;37741;49.748;8.490;2023-04-20T04:25:23;5.47;;;3.13;;
51660;SDS011;37741;49.748;8.490;2023-04-20T04:27:49;6.80;;;3.40;;
51660;SDS011;37741;49.748;8.490;2023-04-20T04:30:15;5.47;;;3.20;;
51660;SDS011;37741;49.748;8.490;2023-04-20T04:32:43;4.88;;;2.53;;
51660;SDS011;37741;49.748;8.490;2023-04-20T04:35:10;6.05;;;3.17;;
51660;SDS011;37741;49.748;8.490;2023-04-20T04:37:37;5.47;;;3.00;;
51660;SDS011;37741;49.748;8.490;2023-04-20T04:40:03;5.63;;;3.35;;
51660;SDS011;37741;49.748;8.490;2023-04-20T04:42:31;4.40;;;2.78;;
51660;SDS011;37741;49.748;8.490;2023-04-20T04:44:58;5.95;;;3.05;;
51660;SDS011;37741;49.748;8.490;2023-04-20T04:47:26;8.00;;;2.80;;
51660;SDS011;37741;49.748;8.490;2023-04-20T04:49:53;7.65;;;3.38;;
51660;SDS011;37741;49.748;8.490;2023-04-20T04:52:19;7.03;;;3.50;;
51660;SDS011;37741;49.748;8.490;2023-04-20T04:54:45;5.45;;;3.50;;
51660;SDS011;37741;49.748;8.490;2023-04-20T04:57:11;7.82;;;3.17;;
51660;SDS011;37741;49.748;8.490;2023-04-20T04:59:36;5.82;;;2.95;;
51660;SDS011;37741;49.748;8.490;2023-04-20T05:02:02;5.18;;;3.20;;
51660;SDS011;37741;49.748;8.490;2023-04-20T05:04:28;6.38;;;3.50;;
51660;SDS011;37741;49.748;8.490;2023-04-20T05:06:53;6.90;;;3.28;;
51660;SDS011;37741;49.748;8.490;2023-04-20T05:09:19;4.72;;;2.70;;
51660;SDS011;37741;49.748;8.490;2023-04-20T05:11:44;4.63;;;3.22;;
51660;SDS011;37741;49.748;8.490;2023-04-20T05:14:10;7.38;;;2.90;;
51660;SDS011;37741;49.748;8.490;2023-04-20T05:16:36;6.25;;;3.17;;
51660;SDS011;37741;49.748;8.490;2023-04-20T05:19:01;5.15;;;2.70;;
51660;SDS011;37741;49.748;8.490;2023-04-20T05:21:28;4.90;;;3.00;;
51660;SDS011;37741;49.748;8.490;2023-04-20T05:23:53;5.15;;;3.20;;
51660;SDS011;37741;49.748;8.490;2023-04-20T05:26:19;5.30;;;3.17;;
51660;SDS011;37741;49.748;8.490;2023-04-20T05:28:45;5.57;;;3.20;;
51660;SDS011;37741;49.748;8.490;2023-04-20T05:31:10;4.95;;;3.08;;
51660;SDS011;37741;49.748;8.490;2023-04-20T05:33:36;6.18;;;3.30;;
51660;SDS011;37741;49.748;8.490;2023-04-20T05:36:01;5.35;;;3.05;;
51660;SDS011;37741;49.748;8.490;2023-04-20T05:38:27;4.88;;;3.42;;
51660;SDS011;37741;49.748;8.490;2023-04-20T05:40:53;4.38;;;2.75;;
51660;SDS011;37741;49.748;8.490;2023-04-20T05:43:19;7.05;;;3.05;;
51660;SDS011;37741;49.748;8.490;2023-04-20T05:45:45;6.00;;;3.60;;
51660;SDS011;37741;49.748;8.490;2023-04-20T05:48:10;5.40;;;3.55;;
51660;SDS011;37741;49.748;8.490;2023-04-20T05:50:36;5.03;;;3.10;;
51660;SDS011;37741;49.748;8.490;2023-04-20T05:53:01;7.72;;;3.78;;
51660;SDS011;37741;49.748;8.490;2023-04-20T05:55:27;7.10;;;3.53;;
51660;SDS011;37741;49.748;8.490;2023-04-20T05:57:53;8.13;;;3.53;;
51660;SDS011;37741;49.748;8.490;2023-04-20T06:00:19;7.53;;;3.65;;
51660;SDS011;37741;49.748;8.490;2023-04-20T06:02:44;8.30;;;3.80;;
51660;SDS011;37741;49.748;8.490;2023-04-20T06:05:10;6.57;;;3.05;;
51660;SDS011;37741;49.748;8.490;2023-04-20T06:07:36;5.70;;;3.65;;
51660;SDS011;37741;49.748;8.490;2023-04-20T06:10:02;4.65;;;3.15;;
51660;SDS011;37741;49.748;8.490;2023-04-20T06:12:29;4.85;;;3.03;;
51660;SDS011;37741;49.748;8.490;2023-04-20T06:14:55;7.30;;;3.47;;
51660;SDS011;37741;49.748;8.490;2023-04-20T06:17:21;6.32;;;3.58;;
51660;SDS011;37741;49.748;8.490;2023-04-20T06:19:47;6.03;;;3.35;;
51660;SDS011;37741;49.748;8.490;2023-04-20T06:22:12;6.22;;;3.78;;
51660;SDS011;37741;49.748;8.490;2023-04-20T06:24:38;8.88;;;3.30;;
51660;SDS011;37741;49.748;8.490;2023-04-20T06:27:06;7.20;;;4.13;;
51660;SDS011;37741;49.748;8.490;2023-04-20T06:29:32;5.85;;;3.65;;
51660;SDS011;37741;49.748;8.490;2023-04-20T06:31:58;6.85;;;3.80;;
51660;SDS011;37741;49.748;8.490;2023-04-20T06:34:23;5.85;;;3.72;;
51660;SDS011;37741;49.748;8.490;2023-04-20T06:36:49;4.68;;;3.60;;
51660;SDS011;37741;49.748;8.490;2023-04-20T06:39:15;7.65;;;3.67;;
51660;SDS011;37741;49.748;8.490;2023-04-20T06:41:41;7.50;;;3.58;;
51660;SDS011;37741;49.748;8.490;2023-04-20T06:44:07;4.82;;;3.80;;
51660;SDS011;37741;49.748;8.490;2023-04-20T06:46:32;5.68;;;4.20;;
51660;SDS011;37741;49.748;8.490;2023-04-20T06:48:58;5.05;;;3.42;;
51660;SDS011;37741;49.748;8.490;2023-04-20T06:51:24;6.10;;;3.65;;
51660;SDS011;37741;49.748;8.490;2023-04-20T06:53:51;4.95;;;3.20;;
51660;SDS011;37741;49.748;8.490;2023-04-20T06:56:17;6.53;;;4.13;;
51660;SDS011;37741;49.748;8.490;2023-04-20T06:58:42;7.15;;;4.20;;
51660;SDS011;37741;49.748;8.490;2023-04-20T07:01:08;5.75;;;3.53;;
51660;SDS011;37741;49.748;8.490;2023-04-20T07:03:33;7.53;;;3.78;;
51660;SDS011;37741;49.748;8.490;2023-04-20T07:05:59;4.93;;;3.35;;
51660;SDS011;37741;49.748;8.490;2023-04-20T07:08:25;5.32;;;3.63;;
51660;SDS011;37741;49.748;8.490;2023-04-20T07:10:50;5.75;;;3.17;;
51660;SDS011;37741;49.748;8.490;2023-04-20T07:13:16;5.93;;;3.80;;
51660;SDS011;37741;49.748;8.490;2023-04-20T07:15:43;5.47;;;4.15;;
51660;SDS011;37741;49.748;8.490;2023-04-20T07:18:10;5.28;;;3.47;;
51660;SDS011;37741;49.748;8.490;2023-04-20T07:20:35;6.18;;;3.65;;
51660;SDS011;37741;49.748;8.490;2023-04-20T07:23:01;5.45;;;3.60;;
51660;SDS011;37741;49.748;8.490;2023-04-20T07:25:26;6.05;;;3.42;;
51660;SDS011;37741;49.748;8.490;2023-04-20T07:27:53;7.75;;;3.70;;
51660;SDS011;37741;49.748;8.490;2023-04-20T07:30:19;5.78;;;3.97;;
51660;SDS011;37741;49.748;8.490;2023-04-20T07:32:44;4.93;;;3.47;;
51660;SDS011;37741;49.748;8.490;2023-04-20T07:35:10;6.38;;;3.30;;
51660;SDS011;37741;49.748;8.490;2023-04-20T07:37:36;4.70;;;3.33;;
51660;SDS011;37741;49.748;8.490;2023-04-20T07:40:01;5.00;;;3.50;;
51660;SDS011;37741;49.748;8.490;2023-04-20T07:42:30;7.93;;;3.72;;
51660;SDS011;37741;49.748;8.490;2023-04-20T07:44:57;5.07;;;3.22;;
51660;SDS011;37741;49.748;8.490;2023-04-20T07:47:23;6.15;;;3.42;;
51660;SDS011;37741;49.748;8.490;2023-04-20T07:49:49;5.45;;;3.63;;
51660;SDS011;37741;49.748;8.490;2023-04-20T07:52:14;5.82;;;3.53;;
51660;SDS011;37741;49.748;8.490;2023-04-20T07:54:40;6.60;;;3.15;;
51660;SDS011;37741;49.748;8.490;2023-04-20T07:57:05;6.10;;;3.90;;
51660;SDS011;37741;49.748;8.490;2023-04-20T07:59:33;5.40;;;3.20;;
51660;SDS011;37741;49.748;8.490;2023-04-20T08:01:59;7.07;;;3.15;;
51660;SDS011;37741;49.748;8.490;2023-04-20T08:04:25;5.00;;;2.90;;
51660;SDS011;37741;49.748;8.490;2023-04-20T08:06:51;3.70;;;2.55;;
51660;SDS011;37741;49.748;8.490;2023-04-20T08:09:17;6.68;;;3.55;;
51660;SDS011;37741;49.748;8.490;2023-04-20T08:11:43;5.00;;;3.10;;
51660;SDS011;37741;49.748;8.490;2023-04-20T08:14:11;7.50;;;3.55;;
51660;SDS011;37741;49.748;8.490;2023-04-20T08:16:38;4.20;;;3.25;;
51660;SDS011;37741;49.748;8.490;2023-04-20T08:19:03;5.43;;;3.17;;
51660;SDS011;37741;49.748;8.490;2023-04-20T08:21:34;8.27;;;3.03;;
51660;SDS011;37741;49.748;8.490;2023-04-20T08:24:03;4.25;;;3.15;;
51660;SDS011;37741;49.748;8.490;2023-04-20T08:26:30;4.45;;;3.17;;
51660;SDS011;37741;49.748;8.490;2023-04-20T08:28:56;4.47;;;2.92;;
51660;SDS011;37741;49.748;8.490;2023-04-20T08:31:21;4.65;;;3.20;;
51660;SDS011;37741;49.748;8.490;2023-04-20T08:33:47;4.78;;;3.13;;
51660;SDS011;37741;49.748;8.490;2023-04-20T08:36:13;6.50;;;3.85;;
51660;SDS011;37741;49.748;8.490;2023-04-20T08:38:39;7.25;;;3.53;;
51660;SDS011;37741;49.748;8.490;2023-04-20T08:41:04;5.13;;;3.03;;
51660;SDS011;37741;49.748;8.490;2023-04-20T08:43:30;6.97;;;3.85;;
51660;SDS011;37741;49.748;8.490;2023-04-20T08:45:56;5.70;;;3.80;;
51660;SDS011;37741;49.748;8.490;2023-04-20T08:48:24;4.90;;;3.17;;
51660;SDS011;37741;49.748;8.490;2023-04-20T08:50:51;6.72;;;4.05;;
51660;SDS011;37741;49.748;8.490;2023-04-20T08:53:18;6.50;;;3.13;;
51660;SDS011;37741;49.748;8.490;2023-04-20T08:55:43;5.63;;;3.42;;
51660;SDS011;37741;49.748;8.490;2023-04-20T08:58:09;5.32;;;3.40;;
51660;SDS011;37741;49.748;8.490;2023-04-20T09:00:44;4.47;;;3.13;;
51660;SDS011;37741;49.748;8.490;2023-04-20T09:03:11;4.05;;;3.15;;
51660;SDS011;37741;49.748;8.490;2023-04-20T09:05:36;7.43;;;3.95;;
51660;SDS011;37741;49.748;8.490;2023-04-20T09:08:04;5.07;;;3.47;;
51660;SDS011;37741;49.748;8.490;2023-04-20T09:10:40;4.50;;;3.33;;
51660;SDS011;37741;49.748;8.490;2023-04-20T09:13:07;4.38;;;3.13;;
51660;SDS011;37741;49.748;8.490;2023-04-20T09:15:33;5.55;;;3.67;;
51660;SDS011;37741;49.748;8.490;2023-04-20T09:18:09;4.60;;;3.33;;
51660;SDS011;37741;49.748;8.490;2023-04-20T09:20:36;4.75;;;3.53;;
51660;SDS011;37741;49.748;8.490;2023-04-20T09:23:11;5.28;;;3.72;;
51660;SDS011;37741;49.748;8.490;2023-04-20T09:25:38;4.75;;;3.40;;
51660;SDS011;37741;49.748;8.490;2023-04-20T09:28:05;5.43;;;3.42;;
51660;SDS011;37741;49.748;8.490;2023-04-20T09:30:44;5.15;;;3.78;;
51660;SDS011;37741;49.748;8.490;2023-04-20T09:33:11;7.13;;;3.72;;
51660;SDS011;37741;49.748;8.490;2023-04-20T09:35:39;4.70;;;3.38;;
51660;SDS011;37741;49.748;8.490;2023-04-20T09:38:09;4.43;;;3.00;;
51660;SDS011;37741;49.748;8.490;2023-04-20T09:40:38;5.00;;;3.15;;
51660;SDS011;37741;49.748;8.490;2023-04-20T09:43:09;4.45;;;3.58;;
51660;SDS011;37741;49.748;8.490;2023-04-20T09:45:41;6.15;;;4.50;;
51660;SDS011;37741;49.748;8.490;2023-04-20T09:48:07;6.47;;;3.90;;
51660;SDS011;37741;49.748;8.490;2023-04-20T09:50:34;5.07;;;3.53;;
51660;SDS011;37741;49.748;8.490;2023-04-20T09:53:04;5.68;;;3.40;;
51660;SDS011;37741;49.748;8.490;2023-04-20T09:55:30;5.25;;;3.70;;
51660;SDS011;37741;49.748;8.490;2023-04-20T09:57:56;5.50;;;3.80;;
51660;SDS011;37741;49.748;8.490;2023-04-20T10:00:25;6.20;;;4.03;;
51660;SDS011;37741;49.748;8.490;2023-04-20T10:02:51;6.65;;;3.55;;
51660;SDS011;37741;49.748;8.490;2023-04-20T10:05:16;5.28;;;3.65;;
51660;SDS011;37741;49.748;8.490;2023-04-20T10:07:42;5.35;;;3.47;;
51660;SDS011;37741;49.748;8.490;2023-04-20T10:10:09;5.13;;;3.33;;
51660;SDS011;37741;49.748;8.490;2023-04-20T10:12:51;5.43;;;3.30;;
51660;SDS011;37741;49.748;8.490;2023-04-20T10:15:18;3.85;;;2.97;;
51660;SDS011;37741;49.748;8.490;2023-04-20T10:17:45;5.07;;;3.42;;
51660;SDS011;37741;49.748;8.490;2023-04-20T10:22:48;7.45;;;3.53;;
51660;SDS011;37741;49.748;8.490;2023-04-20T10:25:19;7.97;;;4.25;;
51660;SDS011;37741;49.748;8.490;2023-04-20T10:30:28;5.38;;;3.97;;
51660;SDS011;37741;49.748;8.490;2023-04-20T10:33:02;4.68;;;3.30;;
51660;SDS011;37741;49.748;8.490;2023-04-20T10:35:39;5.88;;;3.90;;
51660;SDS011;37741;49.748;8.490;2023-04-20T10:38:15;4.93;;;3.88;;
51660;SDS011;37741;49.748;8.490;2023-04-20T10:40:53;4.88;;;3.42;;
51660;SDS011;37741;49.748;8.490;2023-04-20T10:43:19;4.68;;;3.10;;
51660;SDS011;37741;49.748;8.490;2023-04-20T10:45:46;4.65;;;3.45;;
51660;SDS011;37741;49.748;8.490;2023-04-20T10:48:12;4.70;;;3.28;;
51660;SDS011;37741;49.748;8.490;2023-04-20T10:50:38;4.32;;;3.15;;
51660;SDS011;37741;49.748;8.490;2023-04-20T10:53:04;5.35;;;3.25;;
51660;SDS011;37741;49.748;8.490;2023-04-20T10:55:30;3.90;;;2.88;;
51660;SDS011;37741;49.748;8.490;2023-04-20T10:57:55;4.43;;;2.90;;
51660;SDS011;37741;49.748;8.490;2023-04-20T11:00:25;4.22;;;3.20;;
51660;SDS011;37741;49.748;8.490;2023-04-20T11:02:52;4.10;;;3.08;;
51660;SDS011;37741;49.748;8.490;2023-04-20T11:05:20;4.40;;;2.75;;
51660;SDS011;37741;49.748;8.490;2023-04-20T11:10:17;4.13;;;3.05;;
51660;SDS011;37741;49.748;8.490;2023-04-20T11:12:44;3.85;;;2.78;;
51660;SDS011;37741;49.748;8.490;2023-04-20T11:15:10;7.78;;;3.97;;
51660;SDS011;37741;49.748;8.490;2023-04-20T11:17:36;7.13;;;3.55;;
51660;SDS011;37741;49.748;8.490;2023-04-20T11:20:10;4.00;;;2.75;;
51660;SDS011;37741;49.748;8.490;2023-04-20T11:22:37;5.65;;;2.58;;
51660;SDS011;37741;49.748;8.490;2023-04-20T11:25:04;3.85;;;2.90;;
51660;SDS011;37741;49.748;8.490;2023-04-20T11:27:30;7.03;;;2.83;;
51660;SDS011;37741;49.748;8.490;2023-04-20T11:29:56;3.25;;;2.25;;
51660;SDS011;37741;49.748;8.490;2023-04-20T11:32:24;4.65;;;2.30;;
51660;SDS011;37741;49.748;8.490;2023-04-20T11:34:57;5.93;;;2.63;;
51660;SDS011;37741;49.748;8.490;2023-04-20T11:37:31;6.70;;;2.60;;
51660;SDS011;37741;49.748;8.490;2023-04-20T11:40:04;5.03;;;2.53;;
51660;SDS011;37741;49.748;8.490;2023-04-20T11:42:33;3.75;;;2.42;;
51660;SDS011;37741;49.748;8.490;2023-04-20T11:44:59;4.10;;;2.55;;
51660;SDS011;37741;49.748;8.490;2023-04-20T11:47:25;3.85;;;2.25;;
51660;SDS011;37741;49.748;8.490;2023-04-20T11:49:51;4.10;;;2.38;;
51660;SDS011;37741;49.748;8.490;2023-04-20T11:52:17;4.18;;;2.33;;
51660;SDS011;37741;49.748;8.490;2023-04-20T11:54:42;3.03;;;2.42;;
51660;SDS011;37741;49.748;8.490;2023-04-20T11:57:08;3.90;;;2.55;;
51660;SDS011;37741;49.748;8.490;2023-04-20T11:59:34;3.90;;;2.15;;
51660;SDS011;37741;49.748;8.490;2023-04-20T12:02:00;3.22;;;2.08;;
51660;SDS011;37741;49.748;8.490;2023-04-20T12:04:27;3.55;;;2.20;;
51660;SDS011;37741;49.748;8.490;2023-04-20T12:06:56;4.40;;;2.45;;
51660;SDS011;37741;49.748;8.490;2023-04-20T12:09:23;4.50;;;2.35;;
51660;SDS011;37741;49.748;8.490;2023-04-20T12:11:52;5.32;;;2.63;;
51660;SDS011;37741;49.748;8.490;2023-04-20T12:14:18;4.05;;;2.38;;
51660;SDS011;37741;49.748;8.490;2023-04-20T12:16:44;4.30;;;2.40;;
51660;SDS011;37741;49.748;8.490;2023-04-20T12:19:09;4.35;;;2.33;;
51660;SDS011;37741;49.748;8.490;2023-04-20T12:21:35;3.25;;;1.90;;
51660;SDS011;37741;49.748;8.490;2023-04-20T12:24:01;3.33;;;2.20;;
51660;SDS011;37741;49.748;8.490;2023-04-20T12:26:26;3.22;;;1.90;;
51660;SDS011;37741;49.748;8.490;2023-04-20T12:28:52;3.85;;;2.10;;
51660;SDS011;37741;49.748;8.490;2023-04-20T12:31:18;4.00;;;2.50;;
51660;SDS011;37741;49.748;8.490;2023-04-20T12:33:43;4.28;;;1.90;;
51660;SDS011;37741;49.748;8.490;2023-04-20T12:36:09;4.28;;;3.00;;
51660;SDS011;37741;49.748;8.490;2023-04-20T12:38:35;3.65;;;2.20;;
51660;SDS011;37741;49.748;8.490;2023-04-20T12:41:01;3.28;;;2.25;;
51660;SDS011;37741;49.748;8.490;2023-04-20T12:43:28;4.82;;;1.88;;
51660;SDS011;37741;49.748;8.490;2023-04-20T12:45:54;5.00;;;2.40;;
51660;SDS011;37741;49.748;8.490;2023-04-20T12:48:20;3.42;;;2.05;;
51660;SDS011;37741;49.748;8.490;2023-04-20T12:50:46;5.50;;;2.55;;
51660;SDS011;37741;49.748;8.490;2023-04-20T12:53:11;3.90;;;2.33;;
51660;SDS011;37741;49.748;8.490;2023-04-20T12:55:37;3.60;;;2.47;;
51660;SDS011;37741;49.748;8.490;2023-04-20T12:58:03;5.18;;;2.40;;
51660;SDS011;37741;49.748;8.490;2023-04-20T13:00:28;3.70;;;2.10;;
51660;SDS011;37741;49.748;8.490;2023-04-20T13:02:54;4.03;;;2.17;;
51660;SDS011;37741;49.748;8.490;2023-04-20T13:05:19;3.63;;;2.30;;
51660;SDS011;37741;49.748;8.490;2023-04-20T13:07:45;3.45;;;2.00;;
51660;SDS011;37741;49.748;8.490;2023-04-20T13:10:11;3.65;;;2.10;;
51660;SDS011;37741;49.748;8.490;2023-04-20T13:12:36;3.70;;;1.90;;
51660;SDS011;37741;49.748;8.490;2023-04-20T13:15:02;3.90;;;2.45;;
51660;SDS011;37741;49.748;8.490;2023-04-20T13:17:28;5.50;;;2.17;;
51660;SDS011;37741;49.748;8.490;2023-04-20T13:19:54;5.78;;;2.22;;
51660;SDS011;37741;49.748;8.490;2023-04-20T13:22:19;4.70;;;2.10;;
51660;SDS011;37741;49.748;8.490;2023-04-20T13:24:45;3.90;;;2.00;;
51660;SDS011;37741;49.748;8.490;2023-04-20T13:27:10;3.47;;;2.00;;
51660;SDS011;37741;49.748;8.490;2023-04-20T13:29:36;4.82;;;2.00;;
51660;SDS011;37741;49.748;8.490;2023-04-20T13:32:03;4.22;;;2.10;;
51660;SDS011;37741;49.748;8.490;2023-04-20T13:34:29;3.15;;;2.10;;
51660;SDS011;37741;49.748;8.490;2023-04-20T13:36:54;2.83;;;2.00;;
51660;SDS011;37741;49.748;8.490;2023-04-20T13:39:22;3.63;;;2.03;;
51660;SDS011;37741;49.748;8.490;2023-04-20T13:41:48;3.00;;;2.00;;
51660;SDS011;37741;49.748;8.490;2023-04-20T13:44:14;3.72;;;1.98;;
51660;SDS011;37741;49.748;8.490;2023-04-20T13:46:43;4.45;;;2.22;;
51660;SDS011;37741;49.748;8.490;2023-04-20T13:49:10;3.00;;;2.00;;
51660;SDS011;37741;49.748;8.490;2023-04-20T13:51:37;3.72;;;1.92;;
51660;SDS011;37741;49.748;8.490;2023-04-20T13:54:03;3.00;;;1.60;;
51660;SDS011;37741;49.748;8.490;2023-04-20T13:56:29;3.28;;;1.70;;
51660;SDS011;37741;49.748;8.490;2023-04-20T13:58:55;2.90;;;1.70;;
51660;SDS011;37741;49.748;8.490;2023-04-20T14:01:21;2.45;;;1.60;;
51660;SDS011;37741;49.748;8.490;2023-04-20T14:03:47;2.80;;;1.63;;
51660;SDS011;37741;49.748;8.490;2023-04-20T14:06:12;4.55;;;1.85;;
51660;SDS011;37741;49.748;8.490;2023-04-20T14:08:38;3.17;;;1.80;;
51660;SDS011;37741;49.748;8.490;2023-04-20T14:11:03;3.20;;;1.95;;
51660;SDS011;37741;49.748;8.490;2023-04-20T14:13:29;4.65;;;2.17;;
51660;SDS011;37741;49.748;8.490;2023-04-20T14:15:55;3.30;;;1.75;;
51660;SDS011;37741;49.748;8.490;2023-04-20T14:18:21;3.35;;;1.80;;
51660;SDS011;37741;49.748;8.490;2023-04-20T14:20:46;3.25;;;1.80;;
51660;SDS011;37741;49.748;8.490;2023-04-20T14:23:16;2.80;;;1.88;;
51660;SDS011;37741;49.748;8.490;2023-04-20T14:25:44;3.83;;;2.13;;
51660;SDS011;37741;49.748;8.490;2023-04-20T14:28:10;3.67;;;2.25;;
51660;SDS011;37741;49.748;8.490;2023-04-20T14:30:36;4.15;;;2.33;;
51660;SDS011;37741;49.748;8.490;2023-04-20T14:33:01;2.55;;;1.60;;
51660;SDS011;37741;49.748;8.490;2023-04-20T14:35:29;3.05;;;1.70;;
51660;SDS011;37741;49.748;8.490;2023-04-20T14:37:54;3.65;;;2.25;;
51660;SDS011;37741;49.748;8.490;2023-04-20T14:40:20;3.13;;;1.98;;
51660;SDS011;37741;49.748;8.490;2023-04-20T14:42:46;3.58;;;2.00;;
51660;SDS011;37741;49.748;8.490;2023-04-20T14:45:12;3.95;;;2.10;;
51660;SDS011;37741;49.748;8.490;2023-04-20T14:47:38;3.28;;;1.90;;
51660;SDS011;37741;49.748;8.490;2023-04-20T14:50:08;3.20;;;1.90;;
51660;SDS011;37741;49.748;8.490;2023-04-20T14:52:34;3.65;;;2.00;;